EZY89AL LPPT-EGHH
Flight info
| Callsign | EZY89AL |
|---|---|
| Flight time | N/A |
| Altitude | 38000 |
| Route | FTM5N FTM UP600 TURON P600 STG N728 KORUL DCT LELNA DCT THRED THRED1S |
| Aircraft | A320/M-V/N |
Departure
| Time | 2026-05-04 17:38 |
|---|---|
| Airport | Lisbon Humberto Delgado Airport (LPPT) |
Arrival
| Time | N/A |
|---|---|
| Airport | Bournemouth Airport (EGHH) |
| Time | Latitude | Longitude | Altitude | Speed | Heading |
|---|---|---|---|---|---|
| 2026-05-04 17:09 | 38.77251 | -9.13170 | 347 ft | 0 kts | 72° |
| 2026-05-04 17:29 | 38.77241 | -9.13206 | 351 ft | 4 kts | 58° |
| 2026-05-04 17:29 | 38.77213 | -9.13229 | 350 ft | 0 kts | 348° |
| 2026-05-04 17:33 | 38.77215 | -9.13230 | 350 ft | 2 kts | 348° |
| 2026-05-04 17:33 | 38.77236 | -9.13235 | 347 ft | 5 kts | 348° |
| 2026-05-04 17:34 | 38.77305 | -9.13472 | 351 ft | 18 kts | 260° |
| 2026-05-04 17:34 | 38.77272 | -9.13648 | 350 ft | 22 kts | 258° |
| 2026-05-04 17:35 | 38.76955 | -9.13992 | 352 ft | 27 kts | 201° |
| 2026-05-04 17:35 | 38.76603 | -9.14195 | 350 ft | 7 kts | 240° |
| 2026-05-04 17:35 | 38.76593 | -9.14224 | 350 ft | 0 kts | 252° |
| 2026-05-04 17:36 | 38.76597 | -9.14239 | 344 ft | 5 kts | 284° |
| 2026-05-04 17:36 | 38.76607 | -9.14275 | 352 ft | 0 kts | 291° |
| 2026-05-04 17:37 | 38.76623 | -9.14323 | 337 ft | 15 kts | 296° |
| 2026-05-04 17:37 | 38.76723 | -9.14348 | 338 ft | 18 kts | 20° |
| 2026-05-04 17:37 | 38.77016 | -9.14192 | 344 ft | 86 kts | 22° |
| 2026-05-04 17:38 | 38.77805 | -9.13771 | 347 ft | 155 kts | 23° |
| 2026-05-04 17:38 | 38.78943 | -9.13146 | 616 ft | 190 kts | 17° |
| 2026-05-04 17:38 | 38.80167 | -9.12438 | 1525 ft | 194 kts | 22° |
| 2026-05-04 17:38 | 38.81334 | -9.11698 | 2431 ft | 181 kts | 21° |
| 2026-05-04 17:39 | 38.83489 | -9.10304 | 3602 ft | 184 kts | 22° |
| 2026-05-04 17:39 | 38.84671 | -9.09414 | 3817 ft | 209 kts | 27° |
| 2026-05-04 17:39 | 38.85988 | -9.08387 | 4161 ft | 233 kts | 25° |
| 2026-05-04 17:40 | 38.87442 | -9.07246 | 4586 ft | 255 kts | 28° |
| 2026-05-04 17:40 | 38.88989 | -9.06025 | 5285 ft | 265 kts | 29° |
| 2026-05-04 17:40 | 38.90462 | -9.04534 | 6058 ft | 273 kts | 39° |
| 2026-05-04 17:40 | 38.91877 | -9.02867 | 6846 ft | 278 kts | 41° |
| 2026-05-04 17:41 | 38.93298 | -9.01193 | 7606 ft | 283 kts | 39° |
| 2026-05-04 17:41 | 38.94745 | -8.99523 | 8621 ft | 268 kts | 38° |
| 2026-05-04 17:41 | 38.96129 | -8.97933 | 9502 ft | 274 kts | 39° |
| 2026-05-04 17:41 | 38.97597 | -8.96221 | 9924 ft | 291 kts | 38° |
| 2026-05-04 17:42 | 38.99121 | -8.94430 | 10411 ft | 306 kts | 38° |
| 2026-05-04 17:42 | 39.00759 | -8.92512 | 10627 ft | 329 kts | 38° |
| 2026-05-04 17:42 | 39.02520 | -8.90455 | 10800 ft | 352 kts | 38° |
| 2026-05-04 17:42 | 39.04368 | -8.88290 | 11244 ft | 364 kts | 39° |
| 2026-05-04 17:43 | 39.06236 | -8.86093 | 11845 ft | 369 kts | 39° |
| 2026-05-04 17:43 | 39.08152 | -8.83839 | 12510 ft | 374 kts | 39° |
| 2026-05-04 17:43 | 39.10087 | -8.81562 | 13163 ft | 378 kts | 39° |
| 2026-05-04 17:43 | 39.12018 | -8.79287 | 13803 ft | 383 kts | 38° |
| 2026-05-04 17:44 | 39.14027 | -8.76928 | 14373 ft | 388 kts | 38° |
| 2026-05-04 17:44 | 39.16012 | -8.74603 | 14934 ft | 391 kts | 38° |
| 2026-05-04 17:44 | 39.17921 | -8.72051 | 15481 ft | 399 kts | 45° |
| 2026-05-04 17:44 | 39.19774 | -8.69341 | 16020 ft | 404 kts | 45° |
| 2026-05-04 17:45 | 39.21641 | -8.66604 | 16555 ft | 408 kts | 45° |
| 2026-05-04 17:45 | 39.23504 | -8.63871 | 17067 ft | 412 kts | 45° |
| 2026-05-04 17:45 | 39.25411 | -8.61072 | 17593 ft | 416 kts | 45° |
| 2026-05-04 17:45 | 39.27337 | -8.58243 | 18128 ft | 420 kts | 45° |
| 2026-05-04 17:46 | 39.29277 | -8.55391 | 18603 ft | 424 kts | 44° |
| 2026-05-04 17:46 | 39.31234 | -8.52518 | 19056 ft | 428 kts | 44° |
| 2026-05-04 17:46 | 39.33184 | -8.49646 | 19493 ft | 431 kts | 44° |
| 2026-05-04 17:46 | 39.35166 | -8.46720 | 19923 ft | 435 kts | 44° |
| 2026-05-04 17:47 | 39.37168 | -8.43762 | 20370 ft | 438 kts | 44° |
| 2026-05-04 17:47 | 39.39184 | -8.40787 | 20800 ft | 441 kts | 44° |